Terminal Aerodrome Forecast
Issued by NWS Sterling, VA

Current Version | Previous Version | Text Only | Print | Product List | Glossary Off
Versions: 1 2 3 4 5 6 7 8 9 10 11 12

000
FTUS41 KLWX 310500
TAFMRB
TAF
KMRB 310520Z 3106/0106 00000KT P6SM BKN060
     FM310800 00000KT P6SM SCT070
     FM311500 26006KT P6SM SCT060
     FM312300 00000KT P6SM SCT060
     FM010500 00000KT P6SM BKN060=

USA.gov is the U.S. government's official web portal to all federal, state and local government web resources and services.